createdAt,value
2022-12-28T00:02:16.517Z,4.30
2022-12-28T00:04:43.296Z,4.20
2022-12-28T00:07:10.113Z,4.20
2022-12-28T00:09:36.860Z,4.20
2022-12-28T00:12:03.639Z,4.10
2022-12-28T00:14:30.735Z,4.10
2022-12-28T00:16:57.532Z,4.10
2022-12-28T00:19:24.213Z,4.10
2022-12-28T00:21:53.261Z,4.10
2022-12-28T00:24:21.623Z,4.30
2022-12-28T00:26:48.433Z,4.40
2022-12-28T00:29:15.414Z,4.80
2022-12-28T00:31:42.464Z,4.90
2022-12-28T00:34:09.143Z,5.00
2022-12-28T00:37:09.058Z,5.10
2022-12-28T00:39:22.506Z,5.20
2022-12-28T00:41:49.273Z,5.30
2022-12-28T00:44:16.000Z,5.30
2022-12-28T00:46:42.745Z,5.40
2022-12-28T00:49:09.527Z,5.40
2022-12-28T00:51:36.281Z,5.40
2022-12-28T00:54:02.995Z,5.40
2022-12-28T00:56:29.753Z,5.40
2022-12-28T00:58:57.776Z,5.50
2022-12-28T01:01:24.700Z,5.50
2022-12-28T01:03:51.581Z,5.50
2022-12-28T01:06:19.024Z,5.50
2022-12-28T01:08:45.738Z,5.50
2022-12-28T01:11:32.253Z,5.60
2022-12-28T01:14:00.746Z,5.60
2022-12-28T01:16:31.393Z,5.60
2022-12-28T01:18:59.498Z,5.60
2022-12-28T01:21:28.090Z,5.60
2022-12-28T01:23:59.449Z,5.70
2022-12-28T01:26:26.643Z,5.70
2022-12-28T01:28:53.355Z,5.70
2022-12-28T01:31:20.667Z,5.70
2022-12-28T01:33:47.555Z,5.70
2022-12-28T01:36:17.085Z,5.80
2022-12-28T01:38:44.131Z,5.70
2022-12-28T01:41:11.690Z,5.70
2022-12-28T01:43:45.559Z,5.80
2022-12-28T01:46:17.168Z,5.80
2022-12-28T01:48:56.308Z,5.80
2022-12-28T01:51:23.012Z,5.80
2022-12-28T01:53:49.712Z,5.80
2022-12-28T01:56:16.377Z,5.80
2022-12-28T01:58:43.053Z,5.90
2022-12-28T02:01:09.893Z,5.90
2022-12-28T02:03:37.253Z,5.90
2022-12-28T02:06:06.109Z,5.90
2022-12-28T02:08:41.313Z,6.00
2022-12-28T02:11:10.323Z,6.00
2022-12-28T02:13:37.093Z,6.00
2022-12-28T02:16:05.182Z,6.10
2022-12-28T02:18:31.859Z,6.10
2022-12-28T02:21:16.819Z,6.10
2022-12-28T02:24:04.161Z,6.10
2022-12-28T02:26:58.820Z,6.10
2022-12-28T02:29:48.004Z,6.10
2022-12-28T02:32:20.414Z,6.10
2022-12-28T02:35:02.347Z,6.10
2022-12-28T02:37:38.409Z,6.10
2022-12-28T02:40:13.217Z,6.20
2022-12-28T02:42:39.926Z,6.10
2022-12-28T02:45:26.824Z,6.20
2022-12-28T02:48:11.860Z,6.20
2022-12-28T02:50:54.166Z,6.20
2022-12-28T02:53:25.835Z,6.30
2022-12-28T02:56:17.630Z,6.30
2022-12-28T02:58:53.051Z,6.40
2022-12-28T03:01:31.850Z,6.30
2022-12-28T03:04:36.824Z,6.40
2022-12-28T03:07:29.091Z,6.30
2022-12-28T03:10:09.023Z,6.40
2022-12-28T03:12:41.682Z,6.40
2022-12-28T03:15:11.148Z,6.40
2022-12-28T03:17:57.766Z,6.40
2022-12-28T03:20:45.637Z,6.40
2022-12-28T03:23:32.853Z,6.40
2022-12-28T03:26:18.174Z,6.40
2022-12-28T03:29:05.869Z,6.40
2022-12-28T03:31:37.840Z,6.50
2022-12-28T03:34:09.498Z,6.50
2022-12-28T03:36:42.034Z,6.50
2022-12-28T03:39:17.688Z,6.50
2022-12-28T03:41:51.075Z,6.60
2022-12-28T03:44:28.258Z,6.50
2022-12-28T03:47:06.615Z,6.50
2022-12-28T03:49:33.698Z,6.60
2022-12-28T03:52:00.511Z,6.60
2022-12-28T03:54:27.886Z,6.60
2022-12-28T03:56:54.668Z,6.60
2022-12-28T03:59:26.785Z,6.60
2022-12-28T04:01:54.553Z,6.70
2022-12-28T04:04:21.406Z,6.70
2022-12-28T04:06:49.759Z,6.70
2022-12-28T04:09:16.621Z,6.70
2022-12-28T04:11:43.311Z,6.70
2022-12-28T04:14:18.066Z,6.70
2022-12-28T04:16:44.895Z,6.70
2022-12-28T04:19:15.494Z,6.70
2022-12-28T04:21:42.205Z,6.70
2022-12-28T04:24:09.532Z,6.70
2022-12-28T04:26:36.906Z,6.70
2022-12-28T04:29:03.705Z,6.80
2022-12-28T04:31:59.719Z,6.80
2022-12-28T04:34:26.491Z,6.80
2022-12-28T04:37:06.759Z,6.80
2022-12-28T04:39:55.375Z,6.80
2022-12-28T04:42:20.144Z,6.80
2022-12-28T04:44:46.790Z,6.80
2022-12-28T04:47:13.586Z,6.80
2022-12-28T04:49:40.272Z,6.80
2022-12-28T04:52:07.002Z,6.80
2022-12-28T04:54:33.702Z,6.80
2022-12-28T04:57:00.429Z,6.80
2022-12-28T04:59:27.148Z,6.80
2022-12-28T05:01:53.892Z,6.80
2022-12-28T05:04:20.644Z,6.80
2022-12-28T05:06:47.395Z,6.80
2022-12-28T05:09:14.076Z,6.80
2022-12-28T05:11:40.795Z,6.80
2022-12-28T05:14:07.542Z,6.80
2022-12-28T05:16:34.262Z,6.80
2022-12-28T05:19:00.993Z,6.90
2022-12-28T05:21:28.192Z,6.90
2022-12-28T05:23:55.334Z,6.90
2022-12-28T05:26:23.659Z,6.90
2022-12-28T05:28:50.395Z,6.90
2022-12-28T05:31:18.801Z,6.80
2022-12-28T05:33:46.023Z,6.90
2022-12-28T05:36:14.550Z,6.90
2022-12-28T05:38:41.394Z,6.90
2022-12-28T05:41:27.456Z,6.90
2022-12-28T05:43:54.490Z,6.90
2022-12-28T05:46:24.509Z,6.90
2022-12-28T05:48:51.309Z,6.90
2022-12-28T05:51:19.369Z,6.90
2022-12-28T05:53:46.281Z,6.90
2022-12-28T05:56:15.067Z,6.80
2022-12-28T05:58:42.960Z,6.90
2022-12-28T06:01:19.637Z,6.90
2022-12-28T06:03:47.524Z,6.90
2022-12-28T06:06:16.404Z,6.90
2022-12-28T06:08:43.809Z,6.90
2022-12-28T06:11:12.197Z,6.90
2022-12-28T06:13:38.960Z,6.90
2022-12-28T06:16:16.337Z,6.90
2022-12-28T06:18:43.856Z,6.90
2022-12-28T06:21:22.080Z,6.90
2022-12-28T06:23:48.930Z,6.90
2022-12-28T06:26:20.043Z,6.90
2022-12-28T06:28:46.887Z,6.90
2022-12-28T06:31:14.613Z,6.90
2022-12-28T06:33:41.571Z,6.90
2022-12-28T06:36:20.511Z,6.90
2022-12-28T06:38:48.263Z,7.00
2022-12-28T06:41:15.592Z,7.00
2022-12-28T06:43:42.712Z,7.00
2022-12-28T06:46:09.695Z,7.00
2022-12-28T06:48:36.692Z,7.00
2022-12-28T06:51:05.282Z,7.00
2022-12-28T06:53:33.908Z,6.90
2022-12-28T06:56:09.868Z,7.00
2022-12-28T06:58:36.559Z,7.10
2022-12-28T07:01:08.172Z,7.00
2022-12-28T07:03:34.988Z,7.00
2022-12-28T07:06:02.138Z,7.10
2022-12-28T07:08:29.081Z,7.10
2022-12-28T07:10:55.796Z,7.10
2022-12-28T07:13:27.979Z,7.10
2022-12-28T07:15:55.137Z,7.10
2022-12-28T07:18:21.858Z,7.20
2022-12-28T07:20:48.898Z,7.10
2022-12-28T07:23:15.553Z,7.10
2022-12-28T07:25:43.487Z,7.10
2022-12-28T07:28:10.182Z,7.10
2022-12-28T07:30:37.014Z,7.20
2022-12-28T07:33:04.468Z,7.20
2022-12-28T07:35:31.296Z,7.20
2022-12-28T07:37:57.959Z,7.20
2022-12-28T07:40:24.701Z,7.20
2022-12-28T07:42:51.367Z,7.20
2022-12-28T07:45:18.031Z,7.20
2022-12-28T07:47:44.726Z,7.20
2022-12-28T07:50:11.456Z,7.30
2022-12-28T07:52:38.197Z,7.30
2022-12-28T07:55:05.221Z,7.30
2022-12-28T07:57:31.923Z,7.30
2022-12-28T07:59:58.613Z,7.30
2022-12-28T08:02:25.315Z,7.30
2022-12-28T08:04:52.555Z,7.30
2022-12-28T08:07:19.387Z,7.20
2022-12-28T08:09:46.094Z,7.20
2022-12-28T08:12:12.764Z,7.20
2022-12-28T08:14:39.448Z,7.20
2022-12-28T08:17:06.162Z,7.20
2022-12-28T08:19:32.876Z,7.20
2022-12-28T08:21:59.606Z,7.20
2022-12-28T08:24:26.279Z,7.20
2022-12-28T08:26:53.223Z,7.20
2022-12-28T08:29:21.386Z,7.20
2022-12-28T08:31:48.306Z,7.20
2022-12-28T08:34:17.094Z,7.20
2022-12-28T08:36:43.948Z,7.20
2022-12-28T08:39:10.724Z,7.20
2022-12-28T08:41:37.509Z,7.30
2022-12-28T08:44:04.464Z,7.30
2022-12-28T08:46:32.869Z,7.30
2022-12-28T08:49:00.078Z,7.30
2022-12-28T08:51:30.479Z,7.20
2022-12-28T08:53:57.285Z,7.20
2022-12-28T08:56:37.435Z,7.30
2022-12-28T08:59:04.291Z,7.40
2022-12-28T09:01:37.273Z,7.40
2022-12-28T09:04:09.282Z,7.40
2022-12-28T09:06:37.809Z,7.40
2022-12-28T09:09:06.525Z,7.40
2022-12-28T09:11:34.873Z,7.50
2022-12-28T09:14:02.317Z,7.50
2022-12-28T09:16:29.250Z,7.50
2022-12-28T09:18:57.744Z,7.60
2022-12-28T09:21:26.193Z,7.60
2022-12-28T09:23:52.957Z,7.60
2022-12-28T09:26:31.211Z,7.60
2022-12-28T09:29:02.491Z,7.60
2022-12-28T09:31:30.746Z,7.60
2022-12-28T09:36:52.454Z,7.70
2022-12-28T09:39:20.732Z,7.70
2022-12-28T09:41:58.619Z,7.70
2022-12-28T09:44:25.397Z,7.70
2022-12-28T09:46:58.930Z,7.70
2022-12-28T09:49:36.794Z,7.70
2022-12-28T09:52:14.039Z,7.70
2022-12-28T09:54:41.431Z,7.70
2022-12-28T09:57:12.813Z,7.70
2022-12-28T09:59:39.873Z,7.80
2022-12-28T10:02:39.616Z,7.80
2022-12-28T10:05:07.051Z,7.80
2022-12-28T10:07:33.982Z,7.80
2022-12-28T10:10:00.897Z,7.90
2022-12-28T10:12:29.354Z,7.80
2022-12-28T10:14:56.312Z,7.90
2022-12-28T10:17:27.231Z,7.90
2022-12-28T10:19:55.629Z,7.90
2022-12-28T10:22:22.368Z,8.00
2022-12-28T10:24:49.454Z,8.00
2022-12-28T10:27:24.823Z,8.00
2022-12-28T10:29:53.523Z,8.10
2022-12-28T10:32:20.748Z,8.10
2022-12-28T10:34:55.886Z,8.20
2022-12-28T10:37:23.297Z,8.20
2022-12-28T10:39:58.271Z,8.20
2022-12-28T10:42:34.138Z,8.20
2022-12-28T10:45:27.077Z,8.10
2022-12-28T10:52:15.342Z,8.20
2022-12-28T10:54:42.084Z,8.20
2022-12-28T10:57:17.236Z,8.20
2022-12-28T10:59:43.919Z,8.20
2022-12-28T11:02:29.242Z,8.20
2022-12-28T11:04:57.384Z,8.20
2022-12-28T11:07:57.103Z,8.30
2022-12-28T11:10:26.669Z,8.20
2022-12-28T11:12:57.874Z,8.30
2022-12-28T11:15:27.616Z,8.30
2022-12-28T11:17:56.879Z,8.20
2022-12-28T11:20:34.602Z,8.30
2022-12-28T11:23:01.761Z,8.30
2022-12-28T11:25:34.344Z,8.30
2022-12-28T11:28:05.451Z,8.30
2022-12-28T11:30:34.733Z,8.30
2022-12-28T11:33:23.719Z,8.30
2022-12-28T11:35:59.736Z,8.40
2022-12-28T11:38:39.997Z,8.40
2022-12-28T11:41:09.146Z,8.40
2022-12-28T11:43:40.389Z,8.40
2022-12-28T11:46:20.552Z,8.40
2022-12-28T11:49:00.172Z,8.40
2022-12-28T11:51:28.632Z,8.40
2022-12-28T11:53:58.300Z,8.40
2022-12-28T11:56:43.828Z,8.40
2022-12-28T11:59:23.842Z,8.40
2022-12-28T12:02:01.052Z,8.30
2022-12-28T12:04:34.793Z,8.30
2022-12-28T12:07:01.562Z,8.30
2022-12-28T12:09:32.826Z,8.30
2022-12-28T12:12:03.786Z,8.40
2022-12-28T12:14:41.971Z,8.30
2022-12-28T12:17:43.147Z,8.40
2022-12-28T12:20:43.035Z,8.40
2022-12-28T12:23:19.671Z,8.40
2022-12-28T12:25:48.668Z,8.50
2022-12-28T12:28:46.426Z,8.60
2022-12-28T12:31:50.865Z,8.60
2022-12-28T12:34:34.313Z,8.60
2022-12-28T12:37:06.921Z,8.60
2022-12-28T12:40:24.645Z,8.60
2022-12-28T12:42:57.186Z,8.70
2022-12-28T12:45:30.100Z,8.70
2022-12-28T12:48:17.053Z,8.80
2022-12-28T12:50:57.555Z,8.80
2022-12-28T12:53:49.579Z,8.80
2022-12-28T12:56:39.656Z,8.90
2022-12-28T12:59:47.678Z,8.90
2022-12-28T13:02:17.427Z,8.90
2022-12-28T13:04:46.970Z,8.90
2022-12-28T13:07:19.263Z,8.90
2022-12-28T13:09:46.042Z,8.90
2022-12-28T13:12:17.323Z,8.90
2022-12-28T13:14:47.799Z,8.90
2022-12-28T13:17:19.082Z,8.80
2022-12-28T13:19:46.273Z,8.90
2022-12-28T13:22:30.151Z,8.90
2022-12-28T13:24:57.430Z,8.80
2022-12-28T13:27:24.188Z,8.80
2022-12-28T13:29:52.682Z,8.80
2022-12-28T13:32:38.603Z,8.80
2022-12-28T13:35:34.697Z,8.90
2022-12-28T13:38:08.316Z,8.80
2022-12-28T13:40:35.168Z,8.80
2022-12-28T13:43:39.042Z,8.80
2022-12-28T13:46:08.265Z,9.00
2022-12-28T13:48:36.519Z,9.00
2022-12-28T13:51:03.977Z,9.00
2022-12-28T13:53:30.830Z,9.10
2022-12-28T13:55:58.822Z,9.00
2022-12-28T13:58:41.918Z,8.90
2022-12-28T14:01:15.294Z,8.90
2022-12-28T14:03:46.140Z,9.00
2022-12-28T14:06:14.305Z,8.90
2022-12-28T14:08:41.854Z,8.90
2022-12-28T14:11:08.741Z,8.90
2022-12-28T14:13:36.264Z,9.00
2022-12-28T14:16:03.648Z,8.90
2022-12-28T14:18:31.094Z,8.90
2022-12-28T14:20:58.294Z,8.90
2022-12-28T14:23:44.353Z,8.90
2022-12-28T14:26:19.216Z,8.90
2022-12-28T14:28:48.140Z,8.80
2022-12-28T14:31:20.698Z,8.80
2022-12-28T14:33:54.673Z,8.70
2022-12-28T14:36:32.238Z,8.80
2022-12-28T14:39:04.687Z,8.70
2022-12-28T14:41:41.346Z,8.70
2022-12-28T14:44:29.882Z,8.70
2022-12-28T14:46:56.724Z,8.70
2022-12-28T14:49:29.618Z,8.70
2022-12-28T14:51:56.795Z,8.80
2022-12-28T14:54:24.862Z,8.80
2022-12-28T14:57:02.981Z,8.70
2022-12-28T14:59:32.635Z,8.70
2022-12-28T15:02:00.519Z,8.70
2022-12-28T15:04:40.087Z,8.70
2022-12-28T15:07:08.397Z,8.70
2022-12-28T15:09:35.196Z,8.70
2022-12-28T15:12:20.524Z,8.70
2022-12-28T15:14:47.803Z,8.70
2022-12-28T15:17:14.756Z,8.70
2022-12-28T15:19:42.296Z,8.60
2022-12-28T15:22:09.058Z,8.70
2022-12-28T15:24:36.033Z,8.70
2022-12-28T15:27:03.140Z,8.60
2022-12-28T15:32:17.674Z,8.60
2022-12-28T15:34:44.383Z,8.60
2022-12-28T15:37:11.100Z,8.60
2022-12-28T15:39:37.811Z,8.70
2022-12-28T15:42:04.712Z,8.70
2022-12-28T15:44:31.366Z,8.70
2022-12-28T15:46:58.212Z,8.70
2022-12-28T15:49:25.051Z,8.70
2022-12-28T15:51:51.748Z,8.70
2022-12-28T15:54:18.817Z,8.80
2022-12-28T15:56:54.927Z,8.80
2022-12-28T15:59:21.668Z,8.80
2022-12-28T16:01:48.701Z,8.80
2022-12-28T16:04:15.660Z,8.80
2022-12-28T16:06:44.976Z,8.80
2022-12-28T16:09:12.606Z,8.80
2022-12-28T16:11:39.319Z,8.80
2022-12-28T16:14:06.725Z,8.80
2022-12-28T16:16:38.012Z,8.90
2022-12-28T16:19:04.951Z,8.90
2022-12-28T16:21:31.646Z,8.90
2022-12-28T16:23:59.076Z,8.90
2022-12-28T16:26:25.835Z,8.90
2022-12-28T16:28:52.598Z,8.90
2022-12-28T16:31:35.903Z,8.90
2022-12-28T16:34:12.712Z,8.90
2022-12-28T16:36:39.510Z,9.00
2022-12-28T16:39:08.257Z,8.90
2022-12-28T17:32:23.686Z,8.10
2022-12-28T17:34:50.420Z,8.10
2022-12-28T17:37:17.615Z,8.20
2022-12-28T17:39:44.365Z,8.10
2022-12-28T17:42:11.708Z,8.10
2022-12-28T17:44:38.784Z,8.10
2022-12-28T17:47:05.561Z,8.10
2022-12-28T17:49:32.299Z,8.10
2022-12-28T17:51:59.071Z,8.10
2022-12-28T17:54:25.772Z,8.20
2022-12-28T17:56:52.469Z,8.20
2022-12-28T17:59:19.381Z,8.20
2022-12-28T18:01:46.103Z,8.10
2022-12-28T18:04:12.975Z,8.10
2022-12-28T18:06:39.755Z,8.10
2022-12-28T18:09:06.552Z,8.10
2022-12-28T18:11:33.269Z,8.20
2022-12-28T18:13:59.937Z,8.30
2022-12-28T18:16:26.714Z,8.50
2022-12-28T18:18:53.604Z,8.60
2022-12-28T18:21:22.014Z,8.60
2022-12-28T18:23:51.346Z,8.70
2022-12-28T18:26:24.328Z,8.70
2022-12-28T18:28:53.412Z,8.80
2022-12-28T18:31:21.037Z,8.70
2022-12-28T18:33:49.251Z,8.80
2022-12-28T18:36:18.707Z,8.80
2022-12-28T18:38:47.807Z,8.80
2022-12-28T18:41:18.345Z,8.90
2022-12-28T18:43:47.549Z,8.80
2022-12-28T19:50:48.611Z,8.30
2022-12-28T19:53:23.992Z,8.30
2022-12-28T20:33:52.863Z,8.50
2022-12-28T20:36:24.285Z,8.50
2022-12-28T20:38:51.046Z,8.60
2022-12-28T20:41:38.286Z,8.60
2022-12-28T20:44:07.112Z,8.60
2022-12-28T20:46:34.144Z,8.60
2022-12-28T20:49:00.951Z,8.60
2022-12-28T20:51:27.748Z,8.60
2022-12-28T20:53:54.512Z,8.60
2022-12-28T20:56:22.498Z,8.70
2022-12-28T20:58:49.427Z,8.70
2022-12-28T21:01:16.499Z,8.80
2022-12-28T21:03:44.186Z,8.70
2022-12-28T21:06:10.979Z,8.80
2022-12-28T21:08:37.660Z,8.90
2022-12-28T21:11:04.457Z,8.90
2022-12-28T21:13:31.179Z,8.90
2022-12-28T21:15:58.158Z,9.00
2022-12-28T21:18:25.040Z,8.90
2022-12-28T21:20:57.721Z,9.00
2022-12-28T21:23:24.453Z,9.00
2022-12-28T21:25:51.253Z,9.00
2022-12-28T21:28:17.969Z,9.00
2022-12-28T21:30:44.706Z,9.00
2022-12-28T21:33:11.538Z,9.10
2022-12-28T21:35:38.402Z,9.00
2022-12-28T21:38:05.462Z,9.10
2022-12-28T21:40:32.181Z,9.00
2022-12-28T21:42:58.970Z,9.00
2022-12-28T21:45:25.735Z,9.10
2022-12-28T21:47:52.446Z,9.00
2022-12-28T21:50:19.229Z,9.10
2022-12-28T21:52:45.963Z,9.10
2022-12-28T21:55:31.240Z,9.10
2022-12-28T21:57:59.769Z,9.20
2022-12-28T22:00:45.062Z,9.20
2022-12-28T22:03:30.450Z,9.20
2022-12-28T22:06:02.570Z,9.20
2022-12-28T22:08:51.143Z,9.20
2022-12-28T22:11:37.307Z,9.20
2022-12-28T22:14:05.085Z,9.30
2022-12-28T22:16:35.206Z,9.40
2022-12-28T22:19:03.506Z,9.40
2022-12-28T22:21:30.953Z,9.50
2022-12-28T22:23:57.701Z,9.40
2022-12-28T22:26:24.435Z,9.40
2022-12-28T22:28:51.103Z,9.50
2022-12-28T22:31:17.881Z,9.50
2022-12-28T22:33:44.985Z,9.50
2022-12-28T22:36:13.305Z,9.50
2022-12-28T22:38:40.007Z,9.50
2022-12-28T22:41:06.745Z,9.50
2022-12-28T22:43:33.615Z,9.40
2022-12-28T22:46:08.182Z,9.50
2022-12-28T22:48:35.150Z,9.50
2022-12-28T22:51:10.277Z,9.50
2022-12-28T22:53:37.083Z,9.50
2022-12-28T22:56:05.808Z,9.50
2022-12-28T22:58:32.551Z,9.40
2022-12-28T23:01:12.211Z,9.50
2022-12-28T23:03:39.982Z,9.40
2022-12-28T23:06:07.397Z,9.40
2022-12-28T23:08:34.246Z,9.40
2022-12-28T23:11:02.588Z,9.40
2022-12-28T23:13:29.522Z,9.40
2022-12-28T23:16:04.234Z,9.40
2022-12-28T23:18:49.811Z,9.40
2022-12-28T23:21:39.567Z,9.40
2022-12-28T23:24:28.949Z,9.40
2022-12-28T23:27:14.063Z,9.40
2022-12-28T23:29:40.946Z,9.40
2022-12-28T23:32:07.657Z,9.40
2022-12-28T23:34:34.365Z,9.40
2022-12-28T23:37:01.202Z,9.40
2022-12-28T23:39:27.919Z,9.40
2022-12-28T23:41:54.870Z,9.40
2022-12-28T23:44:23.566Z,9.40
2022-12-28T23:46:55.220Z,9.40
2022-12-28T23:49:25.208Z,9.40
2022-12-28T23:51:51.950Z,9.40
2022-12-28T23:54:19.036Z,9.40
2022-12-28T23:56:46.016Z,9.40
2022-12-28T23:59:12.767Z,9.40
